Time;durP1;ratioP1;P1;durP2;ratioP2;P2;SDS_P1;SDS_P2;PMS_P1;PMS_P2;Temp;Humidity;BMP_temperature;BMP_pressure;BME280_temperature;BME280_humidity;BME280_pressure;Samples;Min_cycle;Max_cycle;Signal;HPM_P1;HPM_P2
2021/07/13 00:01:38;;;;;;;3.30;1.88;;;;;;;22.95;59.11;100893.06;5034162;28;20113;-79
2021/07/13 00:04:03;;;;;;;3.28;1.88;;;;;;;22.94;58.93;100900.22;5033711;28;20108;-80
2021/07/13 00:06:29;;;;;;;3.28;1.98;;;;;;;22.94;59.43;100900.22;5034297;28;20462;-79
2021/07/13 00:08:54;;;;;;;3.17;1.90;;;;;;;22.93;59.03;100909.16;5034576;28;20026;-80
2021/07/13 00:11:20;;;;;;;3.65;2.00;;;;;;;22.91;59.39;100905.84;5033201;28;20509;-80
2021/07/13 00:13:47;;;;;;;4.15;1.90;;;;;;;22.93;59.41;100913.66;5034271;28;20037;-80
2021/07/13 00:16:12;;;;;;;3.53;2.10;;;;;;;22.93;59.48;100908.34;5033915;28;20492;-79
2021/07/13 00:18:39;;;;;;;3.22;1.85;;;;;;;22.92;59.13;100906.66;5033243;28;20029;-79
2021/07/13 00:21:07;;;;;;;3.33;2.00;;;;;;;22.93;59.33;100913.66;5034310;28;20026;-80
2021/07/13 00:23:35;;;;;;;3.95;2.00;;;;;;;22.91;59.33;100905.03;5033543;28;20075;-80
2021/07/13 00:26:03;;;;;;;4.05;1.90;;;;;;;22.91;59.12;100913.81;5033463;28;20029;-78
2021/07/13 00:28:29;;;;;;;3.83;2.42;;;;;;;22.91;59.49;100918.31;5034145;28;20030;-80
2021/07/13 00:30:54;;;;;;;3.97;2.30;;;;;;;22.90;59.19;100922.75;5034253;28;20029;-80
2021/07/13 00:33:20;;;;;;;3.90;2.03;;;;;;;22.90;58.98;100927.25;5032947;28;20044;-79
2021/07/13 00:35:45;;;;;;;5.63;2.13;;;;;;;22.90;58.78;100921.94;5034023;28;20430;-80
2021/07/13 00:38:10;;;;;;;3.75;2.20;;;;;;;22.88;59.45;100922.09;5033818;28;20026;-80
2021/07/13 00:40:36;;;;;;;4.60;2.05;;;;;;;22.90;59.02;100916.63;5033227;28;20025;-80
2021/07/13 00:43:01;;;;;;;3.45;2.00;;;;;;;22.89;59.24;100915.81;5034255;28;20108;-78
2021/07/13 00:45:27;;;;;;;3.30;2.00;;;;;;;22.88;58.95;100919.44;5033308;28;20041;-78
2021/07/13 00:47:53;;;;;;;3.80;1.92;;;;;;;22.88;58.96;100908.00;5033370;28;20483;-78
2021/07/13 00:50:20;;;;;;;3.90;2.10;;;;;;;22.89;59.27;100909.63;5033532;28;20029;-78
2021/07/13 00:52:46;;;;;;;3.42;2.10;;;;;;;22.86;59.28;100900.16;5033525;28;20026;-78
2021/07/13 00:55:12;;;;;;;3.90;2.20;;;;;;;22.86;58.97;100892.19;5032781;28;20126;-79
2021/07/13 00:57:38;;;;;;;4.70;1.98;;;;;;;22.88;59.25;100890.22;5033312;28;20159;-79
2021/07/13 01:00:07;;;;;;;3.35;1.98;;;;;;;22.87;58.96;100891.19;5033414;28;20030;-79
2021/07/13 01:02:33;;;;;;;3.33;2.00;;;;;;;22.86;59.01;100888.69;5032612;28;20495;-81
2021/07/13 01:05:01;;;;;;;3.63;2.00;;;;;;;22.83;59.36;100882.69;5033479;28;20140;-80
2021/07/13 01:07:52;;;;;;;3.50;2.20;;;;;;;22.86;59.33;100897.50;5032360;28;20026;-78
2021/07/13 01:10:45;;;;;;;3.83;2.05;;;;;;;22.86;59.04;100886.03;5033358;28;20021;-79
2021/07/13 01:13:27;;;;;;;4.70;2.10;;;;;;;22.86;59.02;100886.03;5033398;28;20432;-79
2021/07/13 01:16:00;;;;;;;3.50;1.80;;;;;;;22.83;59.26;100884.53;5032751;28;20358;-79
2021/07/13 01:18:32;;;;;;;3.58;1.90;;;;;;;22.83;59.08;100895.16;5032985;28;20427;-80
2021/07/13 01:21:13;;;;;;;3.47;2.10;;;;;;;22.85;59.41;100910.94;5033194;28;20481;-79
2021/07/13 01:23:50;;;;;;;3.80;1.98;;;;;;;22.85;59.04;100910.94;5032707;28;20029;-80
2021/07/13 01:26:19;;;;;;;3.95;2.00;;;;;;;22.85;59.45;100902.97;5032753;28;20034;-79
2021/07/13 01:28:47;;;;;;;3.63;2.00;;;;;;;22.84;59.03;100899.47;5032423;28;20057;-79
2021/07/13 01:31:19;;;;;;;3.65;2.15;;;;;;;22.82;59.32;100902.28;5032932;28;20053;-79
2021/07/13 01:33:59;;;;;;;3.70;2.13;;;;;;;22.83;59.17;100906.63;5033327;28;20048;-79
2021/07/13 01:36:37;;;;;;;3.80;2.38;;;;;;;22.84;59.11;100907.44;5032430;28;20029;-79
2021/07/13 01:39:08;;;;;;;3.05;1.90;;;;;;;22.81;59.46;100899.78;5033286;28;20531;-79
2021/07/13 01:41:33;;;;;;;3.45;1.90;;;;;;;22.82;59.04;100899.63;5032943;28;20362;-78
2021/07/13 01:44:00;;;;;;;3.85;2.00;;;;;;;22.78;59.32;100898.28;5032228;28;20437;-80
2021/07/13 01:46:27;;;;;;;3.85;2.35;;;;;;;22.79;59.01;100897.25;5033306;28;20048;-80
2021/07/13 01:48:55;;;;;;;3.78;2.15;;;;;;;22.76;59.18;100886.13;5033023;28;20025;-79
2021/07/13 01:51:21;;;;;;;3.50;2.15;;;;;;;22.80;59.08;100895.47;5032194;28;20021;-79
2021/07/13 01:53:49;;;;;;;5.03;2.17;;;;;;;22.81;59.13;100910.41;5033569;28;20033;-79
2021/07/13 01:56:17;;;;;;;4.07;2.20;;;;;;;22.79;59.47;100901.75;5033183;28;20152;-79
2021/07/13 01:58:44;;;;;;;3.13;1.92;;;;;;;22.79;59.48;100904.41;5032921;28;20105;-79
2021/07/13 02:01:19;;;;;;;3.35;2.20;;;;;;;22.78;59.29;100903.59;5033531;28;20021;-79
2021/07/13 02:03:49;;;;;;;4.00;2.10;;;;;;;22.78;59.08;100900.06;5032967;28;20109;-78
2021/07/13 02:06:17;;;;;;;3.50;2.10;;;;;;;22.78;58.82;100903.59;5033216;28;20380;-80
2021/07/13 02:08:43;;;;;;;3.50;2.00;;;;;;;22.78;59.21;100898.28;5033560;28;20044;-79
2021/07/13 02:11:12;;;;;;;3.45;2.17;;;;;;;22.76;59.24;100881.63;5032994;28;20436;-79
2021/07/13 02:13:37;;;;;;;5.10;2.10;;;;;;;22.78;59.14;100882.34;5033197;28;20377;-78
2021/07/13 02:16:04;;;;;;;3.67;2.10;;;;;;;22.78;59.45;100879.69;5033507;28;20025;-80
2021/07/13 02:18:30;;;;;;;3.70;2.10;;;;;;;22.78;59.09;100884.13;5032237;28;20029;-79
2021/07/13 02:20:55;;;;;;;4.10;2.10;;;;;;;22.77;59.34;100885.16;5033350;28;20362;-80
2021/07/13 02:23:21;;;;;;;3.60;2.20;;;;;;;22.77;58.94;100879.84;5033155;28;20025;-79
2021/07/13 02:25:48;;;;;;;3.65;2.30;;;;;;;22.76;59.21;100878.97;5032828;28;20021;-79
2021/07/13 02:28:25;;;;;;;3.97;1.98;;;;;;;22.75;59.19;100877.34;5033563;28;20101;-80
2021/07/13 02:30:56;;;;;;;3.67;2.40;;;;;;;22.77;59.23;100880.66;5033798;28;20365;-79
2021/07/13 02:33:27;;;;;;;3.83;2.20;;;;;;;22.75;58.98;100882.66;5032872;28;20033;-80
2021/07/13 02:35:58;;;;;;;3.72;2.28;;;;;;;22.75;59.12;100884.47;5033976;28;20108;-80
2021/07/13 02:38:24;;;;;;;3.28;1.95;;;;;;;22.76;59.23;100894.09;5033846;28;20025;-79
2021/07/13 02:40:51;;;;;;;3.65;2.00;;;;;;;22.76;59.37;100888.78;5033249;28;20084;-79
2021/07/13 02:43:18;;;;;;;3.67;2.10;;;;;;;22.76;59.29;100896.75;5035428;28;20184;-80
2021/07/13 02:45:46;;;;;;;3.60;2.30;;;;;;;22.75;59.05;100887.97;5036342;28;20454;-80
2021/07/13 02:48:12;;;;;;;4.40;2.13;;;;;;;22.75;59.02;100887.13;5036338;28;20112;-80
2021/07/13 02:50:39;;;;;;;4.00;2.05;;;;;;;22.73;59.31;100876.66;5036157;28;20048;-80
2021/07/13 02:53:07;;;;;;;3.72;1.90;;;;;;;22.73;59.04;100879.31;5035167;28;20583;-80
2021/07/13 02:55:36;;;;;;;4.47;2.33;;;;;;;22.70;59.17;100866.34;5035578;28;20029;-80
2021/07/13 02:58:03;;;;;;;4.22;2.20;;;;;;;22.74;59.20;100874.81;5035874;28;20385;-80
2021/07/13 03:00:32;;;;;;;3.90;2.10;;;;;;;22.73;59.07;100874.00;5035177;28;20120;-80
2021/07/13 03:02:58;;;;;;;3.58;1.90;;;;;;;22.72;58.81;100874.97;5035928;28;20049;-80
2021/07/13 03:05:25;;;;;;;3.40;1.90;;;;;;;22.73;58.93;100870.50;5035643;28;20022;-79
2021/07/13 03:07:52;;;;;;;3.67;2.00;;;;;;;22.73;59.24;100868.69;5035713;28;20029;-78
2021/07/13 03:10:26;;;;;;;5.47;2.35;;;;;;;22.72;59.00;100855.56;5038780;28;20028;-79
2021/07/13 03:12:52;;;;;;;;;;;;;;;22.72;59.10;100859.03;5040021;28;20029;-80
2021/07/13 03:15:22;;;;;;;3.53;2.13;;;;;;;22.71;59.07;100854.72;5038845;28;19923;-80
2021/07/13 03:17:48;;;;;;;3.85;2.10;;;;;;;22.71;59.08;100849.38;5039153;28;20029;-80
2021/07/13 03:20:14;;;;;;;3.75;2.28;;;;;;;22.72;59.05;100844.94;5039286;28;20022;-79
2021/07/13 03:22:42;;;;;;;3.50;2.08;;;;;;;22.71;59.26;100849.38;5038286;28;20112;-79
2021/07/13 03:25:11;;;;;;;3.92;2.45;;;;;;;22.71;59.00;100854.72;5039033;28;20034;-80
2021/07/13 03:27:37;;;;;;;3.30;2.15;;;;;;;22.71;59.22;100848.56;5039017;28;20477;-78
2021/07/13 03:30:04;;;;;;;4.10;2.20;;;;;;;22.71;59.39;100859.19;5035602;28;20036;-78
2021/07/13 03:32:30;;;;;;;3.97;2.30;;;;;;;22.70;59.12;100855.72;5034782;28;20021;-79
2021/07/13 03:34:59;;;;;;;4.13;2.17;;;;;;;22.70;58.93;100849.53;5035380;28;20116;-79
2021/07/13 03:37:25;;;;;;;3.60;2.20;;;;;;;22.70;59.41;100853.06;5034684;28;20032;-79
2021/07/13 03:39:51;;;;;;;3.42;2.10;;;;;;;22.70;59.18;100842.44;5034937;28;20021;-79
2021/07/13 03:42:21;;;;;;;4.50;2.40;;;;;;;22.69;59.04;100847.91;5034061;28;20104;-78
2021/07/13 03:44:46;;;;;;;4.60;2.20;;;;;;;22.68;59.28;100849.69;5034690;28;20124;-79
2021/07/13 03:47:17;;;;;;;4.00;2.33;;;;;;;22.68;59.02;100838.25;5034998;28;20532;-79
2021/07/13 03:49:43;;;;;;;4.68;2.35;;;;;;;22.68;58.81;100847.03;5034498;28;20022;-79
2021/07/13 03:52:13;;;;;;;3.90;2.30;;;;;;;22.69;59.13;100848.72;5034058;28;20511;-79
2021/07/13 03:54:38;;;;;;;3.72;2.08;;;;;;;22.66;58.90;100849.03;5034141;28;20470;-79
2021/07/13 03:57:04;;;;;;;3.60;2.25;;;;;;;22.68;59.09;100855.00;5034047;28;20036;-79
2021/07/13 03:59:30;;;;;;;3.72;2.35;;;;;;;22.69;59.38;100863.84;5034407;28;20056;-78
2021/07/13 04:01:55;;;;;;;4.85;2.10;;;;;;;22.68;59.21;100860.31;5034713;28;20021;-79
2021/07/13 04:04:21;;;;;;;3.65;2.28;;;;;;;22.67;59.19;100863.13;5033198;28;20033;-79
2021/07/13 04:06:46;;;;;;;3.63;2.50;;;;;;;22.67;58.96;100861.34;5034421;28;20037;-79
2021/07/13 04:09:11;;;;;;;4.50;2.23;;;;;;;22.67;59.37;100856.03;5034310;28;20068;-79
2021/07/13 04:11:39;;;;;;;3.83;2.17;;;;;;;22.69;58.88;100861.19;5033235;28;20730;-79
2021/07/13 04:14:05;;;;;;;3.80;2.35;;;;;;;22.67;59.14;100864.00;5034461;28;20079;-79
2021/07/13 04:16:31;;;;;;;3.70;2.10;;;;;;;22.67;59.48;100869.31;5034176;28;20423;-78
2021/07/13 04:18:57;;;;;;;3.67;2.30;;;;;;;22.66;59.08;100870.28;5033553;28;20030;-79
2021/07/13 04:21:22;;;;;;;3.15;1.80;;;;;;;22.64;59.12;100864.28;5034016;28;20029;-79
2021/07/13 04:23:47;;;;;;;3.80;2.20;;;;;;;22.68;59.27;100870.94;5034324;28;20527;-79
2021/07/13 04:26:13;;;;;;;3.92;2.10;;;;;;;22.67;59.38;100857.81;5034060;28;20021;-80
2021/07/13 04:28:38;;;;;;;3.60;2.08;;;;;;;22.65;58.93;100863.28;5032891;28;20486;-80
2021/07/13 04:31:03;;;;;;;4.35;2.10;;;;;;;22.64;59.24;100865.13;5034712;28;20021;-79
2021/07/13 04:33:30;;;;;;;3.53;2.10;;;;;;;22.66;58.87;100872.94;5033216;28;20029;-79
2021/07/13 04:35:57;;;;;;;3.53;1.95;;;;;;;22.67;59.16;100876.41;5034384;28;20060;-79
2021/07/13 04:38:22;;;;;;;3.50;2.17;;;;;;;22.66;59.31;100866.81;5033315;28;20084;-79
2021/07/13 04:40:51;;;;;;;4.05;2.35;;;;;;;22.65;59.03;100871.25;5034302;28;20021;-79
2021/07/13 04:43:20;;;;;;;3.80;2.15;;;;;;;22.66;59.00;100869.47;5033704;28;20029;-80
2021/07/13 04:45:45;;;;;;;4.45;2.30;;;;;;;22.66;59.21;100878.25;5033133;28;20120;-77
2021/07/13 04:48:10;;;;;;;3.58;2.10;;;;;;;22.66;58.89;100874.75;5034052;28;20454;-79
2021/07/13 04:50:36;;;;;;;4.00;2.30;;;;;;;22.63;59.26;100863.44;5033522;28;20489;-78
2021/07/13 04:53:02;;;;;;;4.43;2.30;;;;;;;22.64;59.44;100870.44;5033598;28;20267;-77
2021/07/13 04:55:27;;;;;;;3.50;2.25;;;;;;;22.64;59.09;100875.75;5033549;28;20104;-77
2021/07/13 04:57:53;;;;;;;3.77;2.10;;;;;;;22.61;59.11;100868.09;5033879;28;20068;-78
2021/07/13 05:00:18;;;;;;;3.75;2.20;;;;;;;22.64;59.10;100869.59;5033194;28;20278;-76
2021/07/13 05:02:43;;;;;;;3.47;2.08;;;;;;;22.65;59.04;100871.25;5033071;28;20473;-77
2021/07/13 05:05:14;;;;;;;3.88;2.25;;;;;;;22.65;58.97;100873.91;5032706;28;20040;-77
2021/07/13 05:07:44;;;;;;;4.03;2.40;;;;;;;22.64;59.34;100881.06;5033865;28;20048;-78
2021/07/13 05:10:19;;;;;;;3.85;2.45;;;;;;;22.65;59.16;100879.22;5033584;28;20045;-77
2021/07/13 05:12:45;;;;;;;3.92;2.35;;;;;;;22.64;59.10;100883.72;5034806;28;20057;-77
2021/07/13 05:15:12;;;;;;;3.40;2.30;;;;;;;22.64;59.43;100888.19;5036048;28;20083;-76
2021/07/13 05:17:40;;;;;;;3.58;2.22;;;;;;;22.64;58.86;100885.53;5037143;28;20053;-79
2021/07/13 05:20:12;;;;;;;3.42;2.15;;;;;;;22.62;59.18;100884.84;5048227;28;20029;-77
2021/07/13 05:22:37;;;;;;;4.45;2.50;;;;;;;22.63;59.13;100879.38;5039146;28;20051;-76
2021/07/13 05:25:05;;;;;;;6.13;2.30;;;;;;;22.64;59.13;100883.72;5044774;28;20021;-80
2021/07/13 05:27:35;;;;;;;4.32;2.45;;;;;;;22.58;58.88;100864.91;5044265;28;20041;-78
2021/07/13 05:30:01;;;;;;;3.88;2.25;;;;;;;22.63;59.00;100879.38;5042404;28;20043;-76
2021/07/13 05:32:29;;;;;;;5.22;2.33;;;;;;;22.61;58.92;100875.22;5040748;28;20029;-75
2021/07/13 05:34:54;;;;;;;5.10;2.25;;;;;;;22.63;59.01;100878.56;5037980;28;20128;-77
2021/07/13 05:37:19;;;;;;;4.28;2.30;;;;;;;22.62;59.20;100874.22;5034125;28;20049;-76
2021/07/13 05:39:48;;;;;;;4.63;2.10;;;;;;;22.63;59.08;100871.41;5033809;28;20029;-75
2021/07/13 05:42:14;;;;;;;3.63;2.38;;;;;;;22.61;59.07;100872.56;5033171;28;20022;-76
2021/07/13 05:44:39;;;;;;;3.45;2.13;;;;;;;22.63;58.96;100876.72;5032868;28;20045;-76
2021/07/13 05:47:07;;;;;;;4.18;2.22;;;;;;;22.61;59.08;100876.06;5032737;28;20079;-76
2021/07/13 05:49:33;;;;;;;3.38;2.20;;;;;;;22.62;59.26;100887.50;5031714;28;20060;-76
2021/07/13 05:51:58;;;;;;;4.28;2.60;;;;;;;22.64;59.17;100885.53;5032754;28;20071;-76
2021/07/13 05:54:23;;;;;;;3.50;2.17;;;;;;;22.62;59.22;100879.53;5032276;28;20025;-76
2021/07/13 05:56:48;;;;;;;3.77;2.30;;;;;;;22.55;59.40;100879.31;5032542;28;20025;-79
2021/07/13 05:59:14;;;;;;;3.78;2.30;;;;;;;22.63;59.05;100895.31;5034503;28;20278;-78
2021/07/13 06:01:39;;;;;;;3.63;2.28;;;;;;;22.61;59.30;100893.81;5033456;28;20049;-76
2021/07/13 06:04:07;;;;;;;5.53;2.30;;;;;;;22.62;59.11;100898.13;5033794;28;20453;-81
2021/07/13 06:06:33;;;;;;;4.00;2.47;;;;;;;22.61;59.30;100896.47;5033601;28;20305;-76
2021/07/13 06:08:58;;;;;;;4.55;3.10;;;;;;;22.60;59.57;100900.09;5032676;28;20021;-74
2021/07/13 06:11:23;;;;;;;4.90;2.60;;;;;;;22.60;59.20;100894.78;5032082;28;20109;-77
2021/07/13 06:13:49;;;;;;;4.18;2.45;;;;;;;22.60;59.55;100903.59;5032645;28;20503;-74
2021/07/13 06:16:14;;;;;;;4.07;2.20;;;;;;;22.62;59.59;100903.44;5033592;28;20121;-72
2021/07/13 06:18:39;;;;;;;4.00;2.30;;;;;;;22.61;59.80;100897.31;5035695;28;20026;-73
2021/07/13 06:21:08;;;;;;;4.10;2.38;;;;;;;22.63;59.75;100903.28;5037009;28;20021;-78
2021/07/13 06:23:34;;;;;;;4.63;2.65;;;;;;;22.64;59.60;100896.16;5037459;28;20049;-72
2021/07/13 06:25:59;;;;;;;3.58;2.25;;;;;;;22.66;59.72;100909.31;5036470;28;20048;-73
2021/07/13 06:28:24;;;;;;;4.00;2.13;;;;;;;22.67;59.90;100901.19;5036296;28;20030;-74
2021/07/13 06:30:49;;;;;;;3.77;2.23;;;;;;;22.67;60.04;100903.84;5036473;28;20038;-73
2021/07/13 06:33:15;;;;;;;4.05;2.33;;;;;;;22.67;60.03;100906.50;5036821;28;20266;-74
2021/07/13 06:35:43;;;;;;;4.80;2.50;;;;;;;22.69;60.05;100909.00;5038967;28;20037;-75
2021/07/13 06:38:08;;;;;;;4.10;2.40;;;;;;;22.69;59.87;100904.50;5039864;28;20029;-74
2021/07/13 06:40:33;;;;;;;4.60;2.50;;;;;;;22.70;59.79;100911.50;5039081;28;20672;-74
2021/07/13 06:42:58;;;;;;;4.70;2.30;;;;;;;22.71;59.81;100912.31;5037790;28;20045;-75
2021/07/13 06:45:24;;;;;;;4.55;2.30;;;;;;;22.71;60.08;100904.34;5034571;28;20456;-73
2021/07/13 06:47:54;;;;;;;4.80;2.47;;;;;;;22.72;60.00;100916.66;5036312;28;20025;-73
2021/07/13 06:50:22;;;;;;;3.53;2.30;;;;;;;22.72;59.95;100914.81;5037294;28;20052;-69
2021/07/13 06:52:56;;;;;;;4.32;2.50;;;;;;;22.72;59.93;100911.34;5037813;28;20470;-74
2021/07/13 06:55:22;;;;;;;4.30;2.60;;;;;;;22.71;59.94;100905.19;5041766;28;20029;-75
2021/07/13 06:57:47;;;;;;;4.50;2.80;;;;;;;22.73;60.31;100899.72;5042488;28;20017;-75
2021/07/13 07:00:13;;;;;;;4.00;2.50;;;;;;;22.74;60.32;100906.69;5036532;28;20034;-77
2021/07/13 07:02:39;;;;;;;3.70;2.40;;;;;;;22.75;60.02;100911.03;5036820;28;20496;-76
2021/07/13 07:05:06;;;;;;;3.75;2.40;;;;;;;22.75;60.25;100916.34;5036218;28;20029;-76
2021/07/13 07:07:31;;;;;;;4.25;2.65;;;;;;;22.76;60.07;100921.47;5034671;28;20469;-77
2021/07/13 07:09:57;;;;;;;4.53;2.70;;;;;;;22.77;60.28;100925.81;5036306;28;20038;-78
2021/07/13 07:12:22;;;;;;;4.90;2.70;;;;;;;22.74;60.22;100918.16;5036329;28;20267;-78
2021/07/13 07:14:54;;;;;;;4.60;2.80;;;;;;;22.77;60.25;100927.66;5034885;28;20025;-76
2021/07/13 07:17:19;;;;;;;5.03;3.22;;;;;;;22.77;60.23;100919.69;5035826;28;20092;-75
2021/07/13 07:19:44;;;;;;;4.63;3.20;;;;;;;22.74;60.22;100920.81;5034994;28;20477;-77
2021/07/13 07:22:10;;;;;;;5.32;2.80;;;;;;;22.75;60.21;100925.16;5034547;28;20488;-74
2021/07/13 07:24:35;;;;;;;4.57;2.63;;;;;;;22.75;60.49;100919.00;5034739;28;20025;-75
2021/07/13 07:27:00;;;;;;;4.35;2.95;;;;;;;22.76;60.25;100925.97;5035088;28;20275;-74
2021/07/13 07:29:25;;;;;;;5.72;3.30;;;;;;;22.75;60.24;100925.16;5033094;28;20083;-75
2021/07/13 07:31:51;;;;;;;4.45;2.97;;;;;;;22.76;60.01;100913.50;5035471;28;20037;-75
2021/07/13 07:34:19;;;;;;;4.60;2.78;;;;;;;22.77;60.28;100931.13;5034301;28;20026;-76
2021/07/13 07:36:45;;;;;;;5.30;3.13;;;;;;;22.77;60.48;100930.31;5035359;28;20527;-76
2021/07/13 07:39:10;;;;;;;4.82;3.10;;;;;;;22.77;60.32;100932.97;5035947;28;20112;-75
2021/07/13 07:41:35;;;;;;;5.03;3.15;;;;;;;22.78;60.54;100937.28;5036501;28;20032;-76
2021/07/13 07:44:01;;;;;;;5.35;3.28;;;;;;;22.76;60.48;100934.78;5036592;28;20067;-72
2021/07/13 07:46:28;;;;;;;4.20;2.92;;;;;;;22.76;60.56;100932.09;5035373;28;20022;-76
2021/07/13 07:48:53;;;;;;;5.28;3.30;;;;;;;22.77;60.92;100935.63;5034912;28;20063;-74
2021/07/13 07:51:19;;;;;;;5.95;3.20;;;;;;;22.77;60.47;100931.13;5036016;28;20369;-75
2021/07/13 07:53:47;;;;;;;5.00;3.50;;;;;;;22.78;60.63;100942.59;5038485;28;20032;-79
2021/07/13 07:56:13;;;;;;;6.15;3.80;;;;;;;22.79;60.56;100941.59;5040811;28;20060;-79
2021/07/13 07:58:38;;;;;;;5.73;3.80;;;;;;;22.81;60.95;100944.94;5039143;28;20030;-76
2021/07/13 08:01:03;;;;;;;8.13;5.32;;;;;;;22.80;60.68;100933.47;5039429;28;20773;-76
2021/07/13 08:03:29;;;;;;;4.93;3.65;;;;;;;22.80;60.67;100932.66;5035296;28;20029;-74
2021/07/13 08:05:55;;;;;;;6.10;3.92;;;;;;;22.80;60.93;100932.66;5035508;28;20150;-74
2021/07/13 08:08:23;;;;;;;6.15;4.30;;;;;;;22.81;60.61;100936.97;5040456;28;20022;-76
2021/07/13 08:10:48;;;;;;;4.75;3.80;;;;;;;22.77;60.45;100928.47;5034756;28;20025;-74
2021/07/13 08:13:14;;;;;;;6.15;3.83;;;;;;;22.78;60.89;100935.47;5035505;28;20127;-74
2021/07/13 08:15:59;;;;;;;6.50;4.10;;;;;;;22.78;60.95;100935.47;5035488;28;20515;-73
2021/07/13 08:18:25;;;;;;;5.72;4.40;;;;;;;22.75;60.92;100929.63;5035160;28;20041;-73
2021/07/13 08:20:50;;;;;;;6.03;4.57;;;;;;;22.74;60.64;100930.63;5037059;28;20033;-75
2021/07/13 08:23:16;;;;;;;8.25;5.53;;;;;;;22.76;60.82;100934.78;5036395;28;20026;-74
2021/07/13 08:25:44;;;;;;;10.27;6.57;;;;;;;22.78;60.90;100939.94;5038359;28;20029;-78
2021/07/13 08:28:09;;;;;;;8.18;6.18;;;;;;;22.78;61.21;100929.31;5038269;28;20057;-73
2021/07/13 08:30:35;;;;;;;9.17;7.40;;;;;;;22.76;61.00;100931.28;5035113;28;20033;-76
2021/07/13 08:33:00;;;;;;;7.82;6.75;;;;;;;22.76;61.33;100932.09;5038892;28;20267;-76
2021/07/13 08:35:25;;;;;;;11.67;8.13;;;;;;;22.77;61.21;100930.31;5042171;28;20029;-76
2021/07/13 08:37:51;;;;;;;10.23;8.57;;;;;;;22.76;61.42;100932.09;5041880;28;20366;-75
2021/07/13 08:40:17;;;;;;;10.18;9.07;;;;;;;22.77;61.61;100925.00;5042616;28;20010;-75
2021/07/13 08:42:43;;;;;;;11.13;9.30;;;;;;;22.77;61.64;100925.00;5035959;28;20022;-73
2021/07/13 08:45:15;;;;;;;11.93;9.85;;;;;;;22.77;61.91;100917.03;5034775;28;20065;-73
2021/07/13 08:47:48;;;;;;;11.57;10.38;;;;;;;22.77;61.88;100917.84;5034974;28;20022;-75
2021/07/13 08:50:15;;;;;;;13.45;10.77;;;;;;;22.77;61.86;100917.84;5035731;28;20060;-74
2021/07/13 08:52:41;;;;;;;12.15;10.52;;;;;;;22.78;61.91;100918.69;5036986;28;20033;-75
2021/07/13 08:55:08;;;;;;;12.80;10.88;;;;;;;22.76;62.30;100921.47;5034449;28;20112;-73
2021/07/13 08:57:33;;;;;;;12.80;11.50;;;;;;;22.77;62.29;100927.66;5032816;28;20444;-73
2021/07/13 08:59:59;;;;;;;14.13;12.18;;;;;;;22.76;62.40;100926.78;5033938;28;20494;-74
2021/07/13 09:02:24;;;;;;;13.77;12.02;;;;;;;22.74;62.32;100923.47;5033589;28;20036;-73
2021/07/13 09:04:51;;;;;;;15.63;14.02;;;;;;;22.73;63.33;100928.94;5035139;28;20397;-74
2021/07/13 09:07:17;;;;;;;15.00;13.43;;;;;;;22.74;62.84;100930.63;5033997;28;20438;-73
2021/07/13 09:09:53;;;;;;;15.13;13.52;;;;;;;22.74;63.12;100933.28;5033453;28;20021;-71
2021/07/13 09:12:23;;;;;;;14.48;12.98;;;;;;;22.72;62.66;100930.75;5033238;28;20021;-77
2021/07/13 09:15:08;;;;;;;15.55;13.82;;;;;;;22.73;62.89;100934.25;5032606;28;20017;-74
2021/07/13 09:17:40;;;;;;;15.82;13.50;;;;;;;22.73;63.14;100934.25;5032749;28;20373;-74
2021/07/13 09:20:07;;;;;;;14.80;13.07;;;;;;;22.74;63.33;100938.59;5033003;28;20152;-76
2021/07/13 09:22:33;;;;;;;15.95;14.30;;;;;;;22.75;63.35;100941.09;5033073;28;20033;-75
2021/07/13 09:25:24;;;;;;;14.32;12.82;;;;;;;22.76;63.61;100941.91;5033157;28;20381;-75
2021/07/13 09:28:05;;;;;;;15.32;13.65;;;;;;;22.76;63.66;100937.44;5032685;28;20032;-75
2021/07/13 09:30:30;;;;;;;16.95;14.57;;;;;;;22.76;63.29;100939.25;5032675;28;20056;-74
2021/07/13 09:33:14;;;;;;;16.02;14.18;;;;;;;22.78;63.76;100940.78;5033489;28;20465;-74
2021/07/13 09:35:41;;;;;;;14.77;12.93;;;;;;;22.78;63.21;100942.59;5032327;28;20164;-74
2021/07/13 09:38:06;;;;;;;15.55;13.85;;;;;;;22.78;63.45;100939.94;5033062;28;20030;-70
2021/07/13 09:40:36;;;;;;;15.65;12.77;;;;;;;22.79;63.67;100938.94;5032430;28;20100;-70
2021/07/13 09:43:05;;;;;;;14.68;13.18;;;;;;;22.81;63.63;100939.63;5033361;28;20417;-74
2021/07/13 09:45:33;;;;;;;14.10;12.70;;;;;;;22.81;63.90;100929.84;5033539;28;20087;-76
2021/07/13 09:48:11;;;;;;;12.90;11.60;;;;;;;22.86;63.44;100928.53;5033078;28;20068;-72
2021/07/13 09:50:41;;;;;;;11.52;10.35;;;;;;;22.89;63.50;100933.53;5032765;28;20025;-73
2021/07/13 09:53:13;;;;;;;12.93;11.02;;;;;;;22.92;63.29;100935.91;5032974;28;20060;-73
2021/07/13 09:55:39;;;;;;;12.57;10.65;;;;;;;22.93;63.69;100927.78;5032386;28;20037;-76
2021/07/13 09:58:14;;;;;;;11.57;10.32;;;;;;;22.97;63.50;100937.13;5032782;28;20043;-73
2021/07/13 10:00:40;;;;;;;12.10;10.88;;;;;;;22.98;63.64;100930.78;5033354;28;20068;-71
2021/07/13 10:03:13;;;;;;;11.45;10.27;;;;;;;22.99;63.48;100921.03;5032019;28;20040;-73
2021/07/13 10:05:40;;;;;;;11.15;10.00;;;;;;;23.02;63.56;100931.34;5032281;28;20056;-74
2021/07/13 10:08:06;;;;;;;11.45;9.93;;;;;;;23.03;63.67;100933.00;5031948;28;20106;-76
2021/07/13 10:10:55;;;;;;;11.88;9.48;;;;;;;23.04;63.56;100937.31;5031790;28;20066;-81
2021/07/13 10:13:20;;;;;;;10.70;9.48;;;;;;;23.04;63.58;100939.16;5033534;28;20370;-81
2021/07/13 10:15:48;;;;;;;10.65;9.32;;;;;;;23.04;63.16;100942.66;5039806;28;20033;-81
2021/07/13 10:18:15;;;;;;;10.35;8.98;;;;;;;23.01;63.51;100933.16;5039778;28;20100;-80
2021/07/13 10:20:43;;;;;;;10.27;9.27;;;;;;;23.05;63.15;100941.66;5041266;28;20025;-78
2021/07/13 10:23:11;;;;;;;10.43;9.32;;;;;;;23.04;63.31;100928.53;5033071;28;20029;-75
2021/07/13 10:25:40;;;;;;;9.90;8.90;;;;;;;23.05;63.15;100931.03;5032374;28;20030;-78
2021/07/13 10:28:06;;;;;;;10.85;9.00;;;;;;;23.04;62.94;100924.03;5032363;28;20068;-72
2021/07/13 10:30:31;;;;;;;9.25;8.23;;;;;;;23.03;63.06;100921.53;5031559;28;20044;-72
2021/07/13 10:32:59;;;;;;;9.90;8.83;;;;;;;23.02;63.38;100926.03;5033745;28;20021;-72
2021/07/13 10:35:28;;;;;;;9.15;7.85;;;;;;;23.04;62.68;100926.69;5032897;28;20025;-76
2021/07/13 10:38:21;;;;;;;9.98;7.88;;;;;;;23.06;62.61;100935.34;5031939;28;20084;-69
2021/07/13 10:40:51;;;;;;;8.65;7.53;;;;;;;23.03;62.49;100934.81;5032131;28;20022;-69
2021/07/13 10:43:23;;;;;;;9.55;8.55;;;;;;;23.04;62.90;100941.81;5032011;28;20021;-71
2021/07/13 10:46:08;;;;;;;9.23;7.75;;;;;;;23.03;62.64;100942.78;5031152;28;20489;-71
2021/07/13 10:48:34;;;;;;;8.65;7.25;;;;;;;23.03;62.57;100946.28;5031950;28;20108;-72
2021/07/13 10:51:06;;;;;;;11.63;7.63;;;;;;;23.05;62.49;100946.97;5031982;28;20116;-73
2021/07/13 10:53:39;;;;;;;8.40;7.50;;;;;;;23.06;62.50;100955.78;5032137;28;20025;-71
2021/07/13 10:56:28;;;;;;;8.20;7.28;;;;;;;23.06;62.78;100955.78;5032267;28;20468;-71
2021/07/13 10:58:54;;;;;;;8.32;7.18;;;;;;;23.05;62.38;100960.28;5018224;28;20080;-71
2021/07/13 11:01:43;;;;;;;8.82;7.30;;;;;;;23.06;62.61;100950.47;5032036;28;20041;-72
2021/07/13 11:04:09;;;;;;;10.20;7.30;;;;;;;23.07;62.37;100960.13;5034697;28;20119;-73
2021/07/13 11:06:46;;;;;;;9.93;7.15;;;;;;;23.07;62.47;100960.13;5035205;28;20033;-72
2021/07/13 11:09:18;;;;;;;10.15;7.43;;;;;;;23.05;62.57;100970.91;5036058;28;20033;-70
2021/07/13 11:11:43;;;;;;;8.48;7.30;;;;;;;23.03;62.72;100974.69;5035948;28;20021;-76
2021/07/13 11:14:10;;;;;;;8.68;7.47;;;;;;;23.04;62.41;100965.75;5035557;28;20021;-76
2021/07/13 11:16:40;;;;;;;7.82;7.00;;;;;;;23.01;62.78;100965.03;5035716;28;20044;-73
2021/07/13 11:19:16;;;;;;;8.57;7.28;;;;;;;23.03;62.72;100967.53;5035476;28;20104;-73
2021/07/13 11:21:47;;;;;;;8.77;7.82;;;;;;;23.03;62.39;100961.41;5035701;28;20044;-74
2021/07/13 11:24:16;;;;;;;8.88;6.68;;;;;;;23.03;62.39;100970.19;5035430;28;20040;-73
2021/07/13 11:26:45;;;;;;;9.45;7.03;;;;;;;23.02;62.69;100965.91;5034454;28;20025;-72
2021/07/13 11:29:20;;;;;;;7.93;7.00;;;;;;;23.05;62.52;100970.03;5035393;28;20037;-72